Time;durP1;ratioP1;P1;durP2;ratioP2;P2;SDS_P1;SDS_P2;PMS_P1;PMS_P2;Temp;Humidity;BMP_temperature;BMP_pressure;BME280_temperature;BME280_humidity;BME280_pressure;Samples;Min_cycle;Max_cycle;Signal;HPM_P1;HPM_P2
2023/12/16 00:00:47;;;;;;;20.05;7.95;;;;;;;6.31;100.00;103691.13;5073545;28;20044;-48
2023/12/16 00:03:18;;;;;;;18.90;7.70;;;;;;;6.32;100.00;103682.41;5073415;28;20120;-46
2023/12/16 00:05:48;;;;;;;20.20;7.25;;;;;;;6.30;100.00;103673.69;5073085;28;20048;-48
2023/12/16 00:08:17;;;;;;;16.92;6.68;;;;;;;6.30;100.00;103673.69;5070071;28;20048;-47
2023/12/16 00:10:45;;;;;;;17.38;6.55;;;;;;;6.32;100.00;103679.81;5071368;28;20435;-48
2023/12/16 00:13:14;;;;;;;20.17;6.60;;;;;;;6.30;100.00;103676.31;5073167;28;20052;-48
2023/12/16 00:15:45;;;;;;;20.05;5.97;;;;;;;6.31;100.00;103672.81;5072958;28;20047;-45
2023/12/16 00:18:13;;;;;;;16.65;5.10;;;;;;;6.27;100.00;103671.94;5069568;28;20080;-47
2023/12/16 00:20:44;;;;;;;13.18;5.05;;;;;;;6.27;100.00;103682.41;5071470;28;20528;-49
2023/12/16 00:23:17;;;;;;;20.10;5.47;;;;;;;6.29;100.00;103683.28;5073292;28;20032;-49
2023/12/16 00:25:45;;;;;;;12.18;4.30;;;;;;;6.26;100.00;103670.22;5073052;28;20058;-48
2023/12/16 00:28:14;;;;;;;15.00;3.97;;;;;;;6.31;100.00;103675.44;5072958;28;20123;-48
2023/12/16 00:30:42;;;;;;;17.58;4.00;;;;;;;6.28;100.00;103671.09;5072933;28;20075;-46
2023/12/16 00:33:11;;;;;;;13.13;3.78;;;;;;;6.28;100.00;103672.84;5072731;28;20131;-47
2023/12/16 00:35:39;;;;;;;11.68;3.95;;;;;;;6.28;100.00;103681.53;5072506;28;20500;-47
2023/12/16 00:38:07;;;;;;;13.93;3.83;;;;;;;6.30;100.00;103678.91;5072762;28;20048;-45
2023/12/16 00:40:37;;;;;;;14.25;3.55;;;;;;;6.30;100.00;103677.19;5072696;28;20044;-46
2023/12/16 00:43:05;;;;;;;15.43;3.45;;;;;;;6.35;100.00;103669.34;5072816;28;20068;-46
2023/12/16 00:45:33;;;;;;;12.40;4.32;;;;;;;6.34;100.00;103672.81;5072495;28;20036;-46
2023/12/16 00:48:04;;;;;;;13.07;3.65;;;;;;;6.34;100.00;103678.03;5072472;28;20066;-46
2023/12/16 00:50:33;;;;;;;8.98;3.13;;;;;;;6.35;100.00;103674.56;5072029;28;20504;-48
2023/12/16 00:53:02;;;;;;;15.80;4.00;;;;;;;6.33;100.00;103668.47;5072118;28;20148;-46
2023/12/16 00:55:30;;;;;;;13.43;3.38;;;;;;;6.32;100.00;103678.03;5072437;28;20041;-45
2023/12/16 00:57:59;;;;;;;17.08;2.95;;;;;;;6.31;100.00;103670.22;5072524;28;20106;-48
2023/12/16 01:00:27;;;;;;;11.65;2.78;;;;;;;6.30;100.00;103668.47;5072357;28;20047;-58
2023/12/16 01:02:55;;;;;;;13.32;3.10;;;;;;;6.29;100.00;103658.91;5070966;28;20056;-57
2023/12/16 01:05:23;;;;;;;11.65;2.90;;;;;;;6.29;100.00;103659.75;5072170;28;20048;-45
2023/12/16 01:07:54;;;;;;;13.75;3.28;;;;;;;6.28;100.00;103652.78;5071977;28;20040;-48
2023/12/16 01:10:23;;;;;;;14.48;2.88;;;;;;;6.32;100.00;103653.66;5072155;28;20037;-57
2023/12/16 01:12:51;;;;;;;11.60;2.78;;;;;;;6.29;100.00;103658.91;5072066;28;20045;-49
2023/12/16 01:15:21;;;;;;;8.32;2.78;;;;;;;6.31;100.00;103660.63;5072112;28;20063;-46
2023/12/16 01:17:49;;;;;;;14.55;2.88;;;;;;;6.29;100.00;103656.28;5069456;28;20185;-46
2023/12/16 01:20:17;;;;;;;11.35;2.45;;;;;;;6.31;100.00;103652.78;5068995;28;20048;-47
2023/12/16 01:22:46;;;;;;;12.85;3.00;;;;;;;6.33;100.00;103660.63;5071549;28;20377;-45
2023/12/16 01:25:14;;;;;;;10.93;2.92;;;;;;;6.30;100.00;103650.16;5071480;28;20048;-46
2023/12/16 01:27:43;;;;;;;12.48;2.95;;;;;;;6.28;100.00;103658.03;5071932;28;20102;-45
2023/12/16 01:30:11;;;;;;;12.88;3.20;;;;;;;6.30;100.00;103655.41;5071781;28;20044;-46
2023/12/16 01:32:43;;;;;;;15.70;3.25;;;;;;;6.29;100.00;103656.28;5071835;28;20442;-46
2023/12/16 01:35:11;;;;;;;12.45;2.80;;;;;;;6.26;100.00;103657.16;5071778;28;20094;-47
2023/12/16 01:37:40;;;;;;;10.18;2.88;;;;;;;6.30;100.00;103648.44;5071929;28;20052;-49
2023/12/16 01:40:09;;;;;;;10.90;2.70;;;;;;;6.31;100.00;103649.31;5071983;28;20048;-46
2023/12/16 01:42:37;;;;;;;12.32;3.10;;;;;;;6.32;100.00;103653.66;5071620;28;20048;-46
2023/12/16 01:45:06;;;;;;;11.43;2.85;;;;;;;6.34;100.00;103646.66;5071951;28;20056;-47
2023/12/16 01:47:35;;;;;;;9.23;2.90;;;;;;;6.30;100.00;103651.06;5071650;28;20040;-47
2023/12/16 01:50:06;;;;;;;19.05;3.10;;;;;;;6.29;100.00;103643.22;5070633;28;20395;-45
2023/12/16 01:52:35;;;;;;;11.25;2.35;;;;;;;6.28;100.00;103651.94;5072040;28;20404;-45
2023/12/16 01:55:04;;;;;;;13.13;2.55;;;;;;;6.28;100.00;103662.38;5071766;28;20051;-45
2023/12/16 01:57:32;;;;;;;12.68;2.85;;;;;;;6.24;100.00;103680.69;5071733;28;20110;-47
2023/12/16 02:00:00;;;;;;;13.77;2.90;;;;;;;6.23;100.00;103675.44;5070452;28;20051;-46
2023/12/16 02:02:29;;;;;;;10.15;2.55;;;;;;;6.19;100.00;103672.00;5071652;28;20135;-45
2023/12/16 02:04:57;;;;;;;10.85;2.53;;;;;;;6.18;100.00;103674.59;5071485;28;20044;-46
2023/12/16 02:07:27;;;;;;;12.98;3.00;;;;;;;6.15;100.00;103670.25;5071794;28;20135;-56
2023/12/16 02:09:55;;;;;;;11.18;2.75;;;;;;;6.14;100.00;103671.13;5071535;28;20048;-58
2023/12/16 02:12:23;;;;;;;15.60;2.80;;;;;;;6.13;100.00;103666.75;5071465;28;20045;-57
2023/12/16 02:14:52;;;;;;;13.23;3.05;;;;;;;6.10;100.00;103666.78;5071379;28;20045;-58
2023/12/16 02:17:20;;;;;;;13.13;3.22;;;;;;;6.09;100.00;103667.63;5071844;28;20044;-57
2023/12/16 02:19:50;;;;;;;12.55;2.90;;;;;;;6.07;100.00;103659.78;5071510;28;20045;-57
2023/12/16 02:22:18;;;;;;;11.13;3.40;;;;;;;6.08;100.00;103671.09;5071456;28;20055;-57
2023/12/16 02:24:48;;;;;;;17.10;3.90;;;;;;;6.05;100.00;103666.78;5068984;28;20123;-57
2023/12/16 02:27:17;;;;;;;13.30;3.03;;;;;;;6.01;100.00;103659.81;5066450;28;20127;-58
2023/12/16 02:29:45;;;;;;;8.10;2.72;;;;;;;5.97;100.00;103655.44;5068850;28;20647;-57
2023/12/16 02:32:13;;;;;;;16.02;3.15;;;;;;;5.95;100.00;103648.47;5071402;28;20048;-57
2023/12/16 02:34:42;;;;;;;13.95;3.40;;;;;;;5.92;100.00;103657.19;5070049;28;20056;-57
2023/12/16 02:37:10;;;;;;;15.27;3.47;;;;;;;5.90;100.00;103654.56;5072661;28;20044;-57
2023/12/16 02:39:39;;;;;;;14.57;3.70;;;;;;;5.91;100.00;103647.59;5075304;28;20394;-58
2023/12/16 02:42:09;;;;;;;9.15;3.35;;;;;;;5.89;100.00;103651.94;5070582;28;20430;-57
2023/12/16 02:44:37;;;;;;;14.95;3.10;;;;;;;5.87;100.00;103651.94;5073647;28;20553;-57
2023/12/16 02:47:06;;;;;;;16.33;4.05;;;;;;;5.80;100.00;103660.66;5074993;28;20037;-50
2023/12/16 02:49:34;;;;;;;13.35;3.60;;;;;;;5.80;100.00;103660.66;5074665;28;20040;-56
2023/12/16 02:52:03;;;;;;;14.57;4.22;;;;;;;5.75;100.00;103665.00;5074192;28;20062;-57
2023/12/16 02:54:31;;;;;;;14.27;4.10;;;;;;;5.72;100.00;103663.25;5074636;28;20486;-56
2023/12/16 02:56:59;;;;;;;17.45;4.82;;;;;;;5.68;100.00;103652.81;5072715;28;20057;-57
2023/12/16 02:59:29;;;;;;;12.40;4.22;;;;;;;5.64;100.00;103657.16;5071128;28;20058;-57
2023/12/16 03:01:57;;;;;;;14.05;4.35;;;;;;;5.63;100.00;103649.34;5072985;28;20055;-57
2023/12/16 03:04:28;;;;;;;14.02;4.20;;;;;;;5.60;100.00;103639.75;5070886;28;20552;-57
2023/12/16 03:06:56;;;;;;;13.10;3.85;;;;;;;5.59;100.00;103644.13;5071578;28;20675;-57
2023/12/16 03:09:25;;;;;;;14.07;3.90;;;;;;;5.57;100.00;103638.00;5074503;28;20101;-59
2023/12/16 03:11:53;;;;;;;13.43;4.72;;;;;;;5.55;100.00;103633.69;5074356;28;20049;-58
2023/12/16 03:14:22;;;;;;;16.50;4.15;;;;;;;5.53;100.00;103628.44;5074696;28;20568;-57
2023/12/16 03:16:51;;;;;;;15.10;4.75;;;;;;;5.47;100.00;103628.44;5073108;28;20049;-57
2023/12/16 03:19:19;;;;;;;15.85;4.03;;;;;;;5.45;100.00;103630.16;5073895;28;20040;-57
2023/12/16 03:21:48;;;;;;;16.02;4.13;;;;;;;5.46;100.00;103641.50;5071682;28;20119;-56
2023/12/16 03:24:16;;;;;;;14.65;4.97;;;;;;;5.42;100.00;103645.84;5070506;28;20521;-57
2023/12/16 03:26:44;;;;;;;12.85;4.45;;;;;;;5.39;100.00;103641.47;5074572;28;20515;-57
2023/12/16 03:29:12;;;;;;;12.80;3.97;;;;;;;5.36;100.00;103640.63;5074403;28;20136;-57
2023/12/16 03:31:40;;;;;;;14.88;4.20;;;;;;;5.32;100.00;103636.28;5074207;28;20056;-56
2023/12/16 03:34:10;;;;;;;12.35;3.83;;;;;;;5.30;100.00;103633.63;5072964;28;20036;-58
2023/12/16 03:36:39;;;;;;;18.80;4.70;;;;;;;5.27;100.00;103632.78;5074546;28;20050;-58
2023/12/16 03:39:07;;;;;;;13.23;4.60;;;;;;;5.23;100.00;103631.88;5074054;28;20044;-57
2023/12/16 03:41:38;;;;;;;16.65;4.93;;;;;;;5.20;100.00;103630.13;5074286;28;20047;-58
2023/12/16 03:44:06;;;;;;;12.88;5.15;;;;;;;5.19;100.00;103630.16;5074081;28;20395;-57
2023/12/16 03:46:34;;;;;;;14.20;4.10;;;;;;;5.17;100.00;103622.31;5073789;28;20052;-57
2023/12/16 03:49:03;;;;;;;19.35;4.90;;;;;;;5.13;100.00;103622.31;5073263;28;20412;-57
2023/12/16 03:51:32;;;;;;;13.80;4.65;;;;;;;5.12;100.00;103624.03;5073567;28;20048;-57
2023/12/16 03:54:00;;;;;;;19.38;5.07;;;;;;;5.11;100.00;103622.28;5073695;28;20053;-57
2023/12/16 03:56:29;;;;;;;15.70;4.85;;;;;;;5.10;100.00;103636.22;5072262;28;20053;-57
2023/12/16 03:58:57;;;;;;;19.42;4.93;;;;;;;5.08;100.00;103630.13;5073229;28;20055;-56
2023/12/16 04:01:25;;;;;;;13.75;4.78;;;;;;;5.07;100.00;103633.59;5073520;28;20044;-57
2023/12/16 04:03:56;;;;;;;12.80;4.80;;;;;;;5.05;100.00;103635.34;5073707;28;20040;-57
2023/12/16 04:06:24;;;;;;;17.80;5.10;;;;;;;5.03;100.00;103637.06;5073519;28;20215;-57
2023/12/16 04:08:53;;;;;;;16.92;5.65;;;;;;;5.03;100.00;103624.00;5071118;28;20044;-56
2023/12/16 04:11:21;;;;;;;14.95;4.68;;;;;;;5.02;100.00;103627.50;5070154;28;20049;-57
2023/12/16 04:13:50;;;;;;;19.42;5.15;;;;;;;5.00;100.00;103626.63;5073427;28;20483;-45
2023/12/16 04:16:18;;;;;;;18.67;4.68;;;;;;;5.04;100.00;103638.81;5073230;28;20470;-46
2023/12/16 04:18:46;;;;;;;13.15;4.47;;;;;;;5.00;100.00;103629.22;5073124;28;20052;-47
2023/12/16 04:21:15;;;;;;;14.98;4.32;;;;;;;5.00;100.00;103639.66;5073336;28;20037;-46
2023/12/16 04:23:43;;;;;;;15.40;4.93;;;;;;;5.01;100.00;103633.59;5071773;28;20062;-57
2023/12/16 04:26:13;;;;;;;14.38;4.47;;;;;;;5.02;100.00;103637.94;5072616;28;20048;-57
2023/12/16 04:28:41;;;;;;;11.80;3.92;;;;;;;5.04;100.00;103638.81;5072933;28;20526;-57
2023/12/16 04:31:14;;;;;;;18.50;4.75;;;;;;;5.04;100.00;103641.41;5073181;28;20491;-56
2023/12/16 04:33:42;;;;;;;14.30;4.82;;;;;;;5.07;100.00;103644.03;5072895;28;20040;-50
2023/12/16 04:36:14;;;;;;;13.02;4.15;;;;;;;5.08;100.00;103638.84;5072577;28;20033;-46
2023/12/16 04:38:42;;;;;;;16.92;4.65;;;;;;;5.08;100.00;103641.44;5072657;28;20048;-46
2023/12/16 04:41:13;;;;;;;13.38;3.90;;;;;;;5.10;100.00;103644.06;5073045;28;20094;-46
2023/12/16 04:43:41;;;;;;;17.40;4.55;;;;;;;5.12;100.00;103644.06;5072937;28;20037;-45
2023/12/16 04:46:10;;;;;;;13.65;4.43;;;;;;;5.15;100.00;103651.88;5072832;28;20048;-47
2023/12/16 04:48:38;;;;;;;15.20;4.80;;;;;;;5.16;100.00;103646.66;5072583;28;20151;-47
2023/12/16 04:51:07;;;;;;;18.50;4.55;;;;;;;5.18;100.00;103650.16;5069635;28;20045;-46
2023/12/16 04:53:35;;;;;;;14.15;4.75;;;;;;;5.17;100.00;103637.97;5070200;28;20064;-47
2023/12/16 04:56:04;;;;;;;12.07;4.07;;;;;;;5.16;100.00;103644.03;5072718;28;20415;-47
2023/12/16 04:58:34;;;;;;;11.25;4.80;;;;;;;5.17;100.00;103645.78;5072300;28;20045;-47
2023/12/16 05:01:04;;;;;;;;;;;;;;;5.15;100.00;103646.66;5070870;28;20086;-46
2023/12/16 05:03:33;;;;;;;16.42;4.60;;;;;;;5.15;100.00;103642.28;5072519;28;19924;-44
2023/12/16 05:06:01;;;;;;;15.50;4.97;;;;;;;5.17;100.00;103642.34;5072336;28;20051;-47
2023/12/16 05:08:30;;;;;;;12.75;4.28;;;;;;;5.12;100.00;103639.69;5072253;28;20059;-45
2023/12/16 05:10:58;;;;;;;12.57;4.15;;;;;;;5.11;100.00;103637.09;5072239;28;20476;-45
2023/12/16 05:13:26;;;;;;;15.63;4.28;;;;;;;5.07;100.00;103638.81;5072264;28;20480;-48
2023/12/16 05:15:56;;;;;;;20.33;5.03;;;;;;;5.04;100.00;103646.63;5072028;28;20051;-46
2023/12/16 05:18:25;;;;;;;15.18;4.65;;;;;;;5.02;100.00;103643.16;5069265;28;20131;-55
2023/12/16 05:20:54;;;;;;;13.90;4.68;;;;;;;5.01;100.00;103642.28;5069794;28;20049;-45
2023/12/16 05:23:22;;;;;;;19.70;5.07;;;;;;;4.99;100.00;103635.31;5068810;28;20056;-46
2023/12/16 05:25:50;;;;;;;17.15;5.10;;;;;;;4.97;100.00;103639.66;5070733;28;20049;-45
2023/12/16 05:28:18;;;;;;;19.00;4.80;;;;;;;4.95;100.00;103631.84;5072143;28;20049;-46
2023/12/16 05:30:47;;;;;;;19.00;5.18;;;;;;;4.92;100.00;103629.19;5070302;28;20443;-56
2023/12/16 05:33:16;;;;;;;15.32;4.32;;;;;;;4.93;100.00;103632.69;5069087;28;20057;-57
2023/12/16 05:35:49;;;;;;;16.00;4.30;;;;;;;4.89;100.00;103632.69;5070726;28;20144;-47
2023/12/16 05:38:17;;;;;;;19.08;4.95;;;;;;;4.86;100.00;103637.88;5071655;28;20094;-45
2023/12/16 05:40:45;;;;;;;15.18;4.72;;;;;;;4.84;100.00;103623.97;5071900;28;20051;-47
2023/12/16 05:43:14;;;;;;;15.73;4.43;;;;;;;4.82;100.00;103619.63;5070310;28;20050;-45
2023/12/16 05:45:43;;;;;;;14.10;4.80;;;;;;;4.79;100.00;103610.03;5071633;28;20052;-57
2023/12/16 05:48:12;;;;;;;14.98;4.88;;;;;;;4.77;100.00;103610.91;5071754;28;20044;-45
2023/12/16 05:50:42;;;;;;;15.25;4.20;;;;;;;4.73;100.00;103607.41;5070099;28;20056;-46
2023/12/16 05:53:10;;;;;;;13.25;5.30;;;;;;;4.72;100.00;103601.31;5070149;28;20048;-47
2023/12/16 05:55:39;;;;;;;15.82;4.93;;;;;;;4.71;100.00;103601.31;5071631;28;20064;-57
2023/12/16 05:58:07;;;;;;;17.80;5.25;;;;;;;4.69;100.00;103609.16;5071340;28;20052;-57
2023/12/16 06:00:35;;;;;;;18.50;5.03;;;;;;;4.68;100.00;103614.34;5070016;28;20052;-55
2023/12/16 06:03:06;;;;;;;16.05;4.97;;;;;;;4.67;100.00;103618.69;5071676;28;20082;-57
2023/12/16 06:05:35;;;;;;;15.07;5.00;;;;;;;4.66;100.00;103623.88;5071656;28;20143;-48
2023/12/16 06:08:05;;;;;;;14.70;4.40;;;;;;;4.63;100.00;103629.09;5071576;28;20446;-55
2023/12/16 06:10:34;;;;;;;19.30;4.38;;;;;;;4.62;100.00;103623.03;5071605;28;20052;-47
2023/12/16 06:13:02;;;;;;;15.27;4.30;;;;;;;4.60;100.00;103623.88;5074255;28;20033;-50
2023/12/16 06:15:30;;;;;;;19.50;4.97;;;;;;;4.56;100.00;103634.28;5075758;28;20438;-46
2023/12/16 06:18:03;;;;;;;15.15;4.10;;;;;;;4.62;100.00;103635.16;5075592;28;20453;-47
2023/12/16 06:20:32;;;;;;;18.35;5.60;;;;;;;4.57;100.00;103632.56;5072494;28;20052;-45
2023/12/16 06:23:00;;;;;;;19.40;5.18;;;;;;;4.57;100.00;103636.03;5072287;28;20048;-47
2023/12/16 06:25:29;;;;;;;19.02;5.10;;;;;;;4.57;100.00;103620.38;5075249;28;20504;-45
2023/12/16 06:27:58;;;;;;;19.17;4.55;;;;;;;4.55;100.00;103632.56;5075218;28;20044;-46
2023/12/16 06:30:26;;;;;;;25.85;5.57;;;;;;;4.51;100.00;103625.59;5075342;28;20044;-48
2023/12/16 06:32:55;;;;;;;18.27;4.47;;;;;;;4.53;100.00;103618.63;5075134;28;20048;-48
2023/12/16 06:35:23;;;;;;;25.08;5.22;;;;;;;4.54;100.00;103622.97;5075293;28;20467;-46
2023/12/16 06:37:51;;;;;;;19.52;5.25;;;;;;;4.54;100.00;103629.91;5075126;28;20492;-49
2023/12/16 06:40:22;;;;;;;18.25;5.05;;;;;;;4.57;100.00;103630.81;5075589;28;20045;-50
2023/12/16 06:42:51;;;;;;;16.67;4.93;;;;;;;4.54;100.00;103635.13;5075028;28;20079;-45
2023/12/16 06:45:20;;;;;;;18.35;4.47;;;;;;;4.54;100.00;103643.84;5075415;28;20197;-47
2023/12/16 06:47:48;;;;;;;18.35;5.45;;;;;;;4.53;100.00;103641.22;5074802;28;20063;-57
2023/12/16 06:50:16;;;;;;;22.25;5.47;;;;;;;4.53;100.00;103639.47;5074583;28;20063;-56
2023/12/16 06:52:45;;;;;;;17.60;4.75;;;;;;;4.50;100.00;103647.28;5072090;28;20052;-57
2023/12/16 06:55:13;;;;;;;15.93;5.07;;;;;;;4.51;100.00;103640.34;5071887;28;20079;-56
2023/12/16 06:57:41;;;;;;;14.13;4.50;;;;;;;4.50;100.00;103649.00;5070411;28;20076;-56
2023/12/16 07:00:12;;;;;;;18.77;4.10;;;;;;;4.47;100.00;103657.72;5072079;28;20492;-55
2023/12/16 07:02:42;;;;;;;16.10;4.80;;;;;;;4.45;100.00;103655.97;5074629;28;20054;-56
2023/12/16 07:05:11;;;;;;;20.02;5.07;;;;;;;4.43;100.00;103658.56;5073388;28;20055;-57
2023/12/16 07:07:39;;;;;;;18.88;4.97;;;;;;;4.42;100.00;103655.91;5074713;28;20391;-57
2023/12/16 07:10:08;;;;;;;18.48;4.85;;;;;;;4.40;100.00;103664.63;5074432;28;20387;-57
2023/12/16 07:12:37;;;;;;;22.77;5.20;;;;;;;4.40;100.00;103654.19;5070518;28;20044;-57
2023/12/16 07:15:06;;;;;;;15.77;5.40;;;;;;;4.40;100.00;103661.13;5071725;28;20094;-56
2023/12/16 07:17:35;;;;;;;14.45;5.35;;;;;;;4.38;100.00;103661.13;5072696;28;20048;-56
2023/12/16 07:20:05;;;;;;;15.90;4.82;;;;;;;4.37;100.00;103655.91;5074318;28;20056;-56
2023/12/16 07:22:33;;;;;;;15.55;4.43;;;;;;;4.36;100.00;103668.06;5074101;28;20044;-57
2023/12/16 07:25:01;;;;;;;18.88;4.85;;;;;;;4.36;100.00;103667.19;5073271;28;20056;-55
2023/12/16 07:27:32;;;;;;;16.85;4.88;;;;;;;4.33;100.00;103657.59;5073093;28;20055;-58
2023/12/16 07:30:00;;;;;;;18.23;5.35;;;;;;;4.31;100.00;103663.66;5071275;28;20134;-57
2023/12/16 07:32:28;;;;;;;16.40;4.15;;;;;;;4.28;100.00;103663.66;5070430;28;20040;-57
2023/12/16 07:34:59;;;;;;;22.27;4.80;;;;;;;4.25;100.00;103672.31;5073859;28;20072;-60
2023/12/16 07:37:30;;;;;;;19.88;5.28;;;;;;;4.25;100.00;103666.25;5074033;28;20106;-56
2023/12/16 07:39:58;;;;;;;18.63;5.68;;;;;;;4.21;100.00;103667.94;5073818;28;20048;-56
2023/12/16 07:42:26;;;;;;;18.75;5.40;;;;;;;4.23;100.00;103677.53;5072625;28;20406;-56
2023/12/16 07:44:54;;;;;;;15.82;5.15;;;;;;;4.26;100.00;103676.69;5074134;28;20143;-57
2023/12/16 07:47:22;;;;;;;15.32;4.85;;;;;;;4.25;100.00;103685.34;5074102;28;20052;-56
2023/12/16 07:49:54;;;;;;;15.95;4.35;;;;;;;4.25;100.00;103677.53;5073971;28;20121;-54
2023/12/16 07:52:23;;;;;;;19.77;5.22;;;;;;;4.26;100.00;103683.63;5073566;28;20052;-56
2023/12/16 07:54:52;;;;;;;21.63;5.05;;;;;;;4.28;100.00;103676.69;5073926;28;20519;-56
2023/12/16 07:57:20;;;;;;;13.48;4.85;;;;;;;4.27;100.00;103661.91;5073704;28;20045;-56
2023/12/16 07:59:48;;;;;;;15.10;4.28;;;;;;;4.29;100.00;103668.88;5073498;28;20045;-56
2023/12/16 08:02:20;;;;;;;19.42;4.72;;;;;;;4.34;100.00;103668.91;5073708;28;20487;-55
2023/12/16 08:04:53;;;;;;;16.90;4.75;;;;;;;4.31;100.00;103664.56;5073547;28;20041;-57
2023/12/16 08:07:22;;;;;;;13.40;4.25;;;;;;;4.37;100.00;103664.56;5073183;28;20618;-57
2023/12/16 08:09:51;;;;;;;20.45;4.85;;;;;;;4.39;100.00;103660.25;5073014;28;20059;-56
2023/12/16 08:12:19;;;;;;;19.80;5.35;;;;;;;4.38;100.00;103661.13;5069642;28;20147;-57
2023/12/16 08:14:47;;;;;;;21.67;5.03;;;;;;;4.41;100.00;103665.47;5070568;28;20082;-56
2023/12/16 08:17:16;;;;;;;16.33;4.28;;;;;;;4.40;100.00;103667.22;5072920;28;20052;-57
2023/12/16 08:19:44;;;;;;;23.40;4.32;;;;;;;4.46;100.00;103668.09;5073171;28;20048;-57
2023/12/16 08:22:12;;;;;;;18.60;4.95;;;;;;;4.47;100.00;103665.53;5071808;28;20403;-57
2023/12/16 08:24:42;;;;;;;20.77;4.93;;;;;;;4.62;100.00;103669.94;5070491;28;20056;-56
2023/12/16 08:27:11;;;;;;;16.65;4.70;;;;;;;4.70;100.00;103680.41;5071945;28;20040;-57
2023/12/16 08:29:39;;;;;;;15.25;4.70;;;;;;;4.70;100.00;103680.41;5073023;28;20418;-56
2023/12/16 08:32:07;;;;;;;19.67;4.85;;;;;;;4.77;100.00;103684.78;5071745;28;20052;-56
2023/12/16 08:34:38;;;;;;;19.63;5.00;;;;;;;4.83;100.00;103686.56;5071327;28;20117;-56
2023/12/16 08:37:06;;;;;;;19.27;4.90;;;;;;;4.84;100.00;103689.16;5073043;28;20044;-56
2023/12/16 08:39:34;;;;;;;12.75;4.05;;;;;;;4.85;100.00;103690.91;5070975;28;20071;-56
2023/12/16 08:42:07;;;;;;;17.23;4.25;;;;;;;4.90;100.00;103701.34;5067454;28;20052;-57
2023/12/16 08:44:35;;;;;;;16.65;4.15;;;;;;;4.91;100.00;103703.97;5070149;28;20124;-46
2023/12/16 08:47:04;;;;;;;19.20;4.13;;;;;;;4.99;100.00;103697.91;5069983;28;20535;-46
2023/12/16 08:49:32;;;;;;;24.42;5.95;;;;;;;5.05;100.00;103701.41;5072644;28;20142;-48
2023/12/16 08:52:01;;;;;;;19.75;4.10;;;;;;;5.09;100.00;103691.88;5071167;28;20547;-45
2023/12/16 08:54:29;;;;;;;17.67;4.38;;;;;;;5.16;100.00;103697.97;5072407;28;20138;-48
2023/12/16 08:56:57;;;;;;;19.65;4.80;;;;;;;5.21;100.00;103702.34;5072442;28;20044;-46
2023/12/16 08:59:30;;;;;;;17.73;4.88;;;;;;;5.31;100.00;103705.00;5072471;28;20053;-46
2023/12/16 09:01:58;;;;;;;15.98;4.70;;;;;;;5.38;100.00;103714.56;5072474;28;20573;-56
2023/12/16 09:04:26;;;;;;;17.88;4.60;;;;;;;5.43;100.00;103702.41;5072432;28;20094;-56
2023/12/16 09:06:56;;;;;;;14.70;4.38;;;;;;;5.51;100.00;103713.72;5070140;28;20040;-57
2023/12/16 09:09:25;;;;;;;17.20;3.70;;;;;;;5.59;100.00;103709.41;5069097;28;20117;-48
2023/12/16 09:11:53;;;;;;;17.55;4.47;;;;;;;5.69;100.00;103707.66;5072101;28;20082;-57
2023/12/16 09:14:21;;;;;;;12.48;3.88;;;;;;;5.80;100.00;103709.41;5072324;28;20074;-57
2023/12/16 09:16:51;;;;;;;22.52;5.35;;;;;;;5.85;100.00;103716.38;5072223;28;20044;-56
2023/12/16 09:19:19;;;;;;;17.80;4.45;;;;;;;5.89;100.00;103720.75;5072026;28;20079;-47
2023/12/16 09:21:49;;;;;;;22.05;5.43;;;;;;;5.98;100.00;103727.72;5071790;28;20051;-47
2023/12/16 09:24:19;;;;;;;17.77;4.25;;;;;;;6.01;100.00;103724.25;5071961;28;20079;-48
2023/12/16 09:26:47;;;;;;;19.45;4.22;;;;;;;6.09;100.00;103727.72;5071885;28;20138;-47
2023/12/16 09:29:15;;;;;;;20.33;4.88;;;;;;;6.13;100.00;103732.09;5070092;28;20062;-57
2023/12/16 09:31:44;;;;;;;23.17;5.50;;;;;;;6.14;100.00;103736.44;5068813;28;20109;-57
2023/12/16 09:34:13;;;;;;;12.77;3.92;;;;;;;6.21;100.00;103735.56;5069370;28;20049;-57
2023/12/16 09:36:41;;;;;;;11.48;3.83;;;;;;;6.26;100.00;103738.19;5072123;28;20059;-56
2023/12/16 09:39:10;;;;;;;19.10;4.65;;;;;;;6.31;100.00;103749.50;5072081;28;20476;-57
2023/12/16 09:41:44;;;;;;;17.60;4.82;;;;;;;6.33;100.00;103745.16;5071817;28;20053;-56
2023/12/16 09:44:16;;;;;;;22.02;5.57;;;;;;;6.35;100.00;103739.91;5071684;28;20048;-57
2023/12/16 09:46:46;;;;;;;21.63;5.57;;;;;;;6.37;100.00;103746.03;5067846;28;20110;-57
2023/12/16 09:49:16;;;;;;;19.10;5.40;;;;;;;6.42;100.00;103741.63;5069272;28;20040;-58
2023/12/16 09:51:45;;;;;;;27.40;6.10;;;;;;;6.49;100.00;103738.16;5071506;28;20048;-45
2023/12/16 09:54:15;;;;;;;19.65;6.88;;;;;;;6.50;100.00;103736.41;5071402;28;20578;-45
2023/12/16 09:56:46;;;;;;;21.33;6.97;;;;;;;6.52;100.00;103739.91;5071784;28;20044;-48
2023/12/16 09:59:17;;;;;;;24.65;6.95;;;;;;;6.55;100.00;103740.75;5071841;28;20131;-47
2023/12/16 10:01:51;;;;;;;19.50;6.88;;;;;;;6.57;100.00;103753.81;5071127;28;20403;-46
2023/12/16 10:04:22;;;;;;;22.05;6.28;;;;;;;6.56;100.00;103754.72;5070978;28;20044;-45
2023/12/16 10:06:50;;;;;;;17.90;6.28;;;;;;;6.62;100.00;103759.06;5071349;28;20040;-48
2023/12/16 10:09:18;;;;;;;20.70;7.72;;;;;;;6.62;100.00;103762.53;5071390;28;20140;-49
2023/12/16 10:11:51;;;;;;;21.15;7.25;;;;;;;6.68;100.00;103761.66;5071266;28;20503;-51
2023/12/16 10:14:20;;;;;;;32.13;8.63;;;;;;;6.69;100.00;103758.16;5071347;28;20044;-49
2023/12/16 10:16:50;;;;;;;19.08;7.30;;;;;;;6.68;100.00;103759.91;5070194;28;20516;-51
2023/12/16 10:19:19;;;;;;;24.08;7.22;;;;;;;6.73;100.00;103752.06;5070113;28;20067;-50
2023/12/16 10:21:49;;;;;;;23.60;7.82;;;;;;;6.75;100.00;103738.09;5071056;28;20044;-48
2023/12/16 10:24:17;;;;;;;25.35;7.65;;;;;;;6.78;100.00;103747.69;5071359;28;20515;-46
2023/12/16 10:26:45;;;;;;;27.00;8.77;;;;;;;6.81;100.00;103741.56;5071211;28;20106;-46
2023/12/16 10:29:19;;;;;;;23.27;7.97;;;;;;;6.84;100.00;103747.66;5071282;28;20411;-46
2023/12/16 10:31:47;;;;;;;24.52;8.10;;;;;;;6.82;100.00;103752.03;5071177;28;20125;-47
2023/12/16 10:34:17;;;;;;;26.50;8.90;;;;;;;6.83;100.00;103739.81;5068732;28;20044;-45
2023/12/16 10:36:45;;;;;;;25.27;8.77;;;;;;;6.89;100.00;103740.66;5068343;28;20052;-49
2023/12/16 10:39:15;;;;;;;27.40;8.10;;;;;;;6.90;100.00;103741.56;5071389;28;20036;-45
2023/12/16 10:41:46;;;;;;;26.58;9.07;;;;;;;6.92;100.00;103737.16;5071038;28;20040;-45
2023/12/16 10:44:14;;;;;;;23.73;9.02;;;;;;;6.99;100.00;103735.41;5071153;28;20127;-45
2023/12/16 10:46:46;;;;;;;22.38;8.32;;;;;;;7.00;100.00;103729.31;5071074;28;20052;-47
2023/12/16 10:49:17;;;;;;;21.98;8.70;;;;;;;7.03;100.00;103737.97;5071025;28;20454;-45
2023/12/16 10:51:50;;;;;;;24.48;8.80;;;;;;;7.06;100.00;103738.00;5069435;28;20059;-48
2023/12/16 10:54:28;;;;;;;29.73;10.20;;;;;;;7.10;100.00;103725.75;5070977;28;20113;-46
2023/12/16 10:57:07;;;;;;;23.17;9.50;;;;;;;7.14;100.00;103730.09;5071054;28;20071;-46
2023/12/16 10:59:40;;;;;;;22.15;9.80;;;;;;;7.18;100.00;103728.34;5074493;28;20123;-47
2023/12/16 11:02:19;;;;;;;24.33;9.20;;;;;;;7.22;100.00;103723.06;5074659;28;20098;-58
2023/12/16 11:04:52;;;;;;;26.55;9.50;;;;;;;7.30;100.00;103716.94;5074580;28;20043;-57
2023/12/16 11:07:22;;;;;;;30.23;9.55;;;;;;;7.34;100.00;103716.91;5074693;28;20045;-57
2023/12/16 11:09:55;;;;;;;27.80;9.73;;;;;;;7.35;100.00;103717.75;5073309;28;20058;-57
2023/12/16 11:12:25;;;;;;;28.95;10.32;;;;;;;7.35;100.00;103710.81;5069575;28;20063;-57
2023/12/16 11:14:55;;;;;;;25.33;10.35;;;;;;;7.42;100.00;103714.25;5072125;28;20040;-57
2023/12/16 11:17:30;;;;;;;22.85;9.57;;;;;;;7.41;100.00;103709.88;5074415;28;20063;-57
2023/12/16 11:20:03;;;;;;;22.48;9.85;;;;;;;7.41;100.00;103702.03;5074110;28;20488;-57
2023/12/16 11:22:31;;;;;;;25.75;10.15;;;;;;;7.41;100.00;103702.88;5074242;28;20051;-57
2023/12/16 11:25:03;;;;;;;22.90;10.32;;;;;;;7.44;100.00;103697.66;5074309;28;20044;-57